createdAt,value
2023-04-17T00:00:49.312Z,99272.48
2023-04-17T00:02:27.811Z,99266.41
2023-04-17T00:04:02.261Z,99267.77
2023-04-17T00:17:32.127Z,99262.02
2023-04-17T00:18:57.391Z,99259.26
2023-04-17T00:20:29.958Z,99256.07
2023-04-17T00:22:02.505Z,99258.29
2023-04-17T00:23:35.371Z,99255.33
2023-04-17T00:25:09.290Z,99254.80
2023-04-17T00:26:46.887Z,99257.16
2023-04-17T00:34:54.445Z,99252.09
2023-04-17T00:36:28.384Z,99255.03
2023-04-17T00:38:01.694Z,99253.48
2023-04-17T00:39:34.135Z,99254.33
2023-04-17T00:41:06.966Z,99255.99
2023-04-17T00:44:38.657Z,99258.84
2023-04-17T00:46:11.308Z,99258.05
2023-04-17T00:47:43.981Z,99261.20
2023-04-17T00:49:09.445Z,99259.54
2023-04-17T00:50:41.977Z,99259.93
2023-04-17T00:52:14.668Z,99258.83
2023-04-17T00:53:47.579Z,99255.77
2023-04-17T00:54:53.806Z,99254.84
2023-04-17T00:56:27.655Z,99257.54
2023-04-17T01:05:48.068Z,99262.31
2023-04-17T01:07:16.035Z,99262.34
2023-04-17T01:08:48.545Z,99262.66
2023-04-17T01:10:21.004Z,99258.08
2023-04-17T01:11:53.473Z,99255.92
2023-04-17T01:13:19.456Z,99255.86
2023-04-17T01:14:51.909Z,99253.36
2023-04-17T01:16:24.419Z,99257.73
2023-04-17T01:17:56.116Z,99255.41
2023-04-17T01:19:14.017Z,99255.23
2023-04-17T01:20:50.805Z,99256.06
2023-04-17T01:22:23.407Z,99257.29
2023-04-17T01:23:50.120Z,99257.11
2023-04-17T01:27:55.583Z,99253.09
2023-04-17T01:29:31.066Z,99253.10
2023-04-17T01:30:53.643Z,99255.00
2023-04-17T01:32:11.331Z,99255.33
2023-04-17T01:33:34.442Z,99257.23
2023-04-17T01:35:07.025Z,99252.39
2023-04-17T01:36:40.089Z,99251.84
2023-04-17T01:38:13.388Z,99249.92
2023-04-17T01:39:45.929Z,99253.13
2023-04-17T01:41:09.107Z,99255.09
2023-04-17T01:42:24.476Z,99257.39
2023-04-17T01:43:38.583Z,99256.45
2023-04-17T01:45:11.033Z,99254.91
2023-04-17T01:46:42.933Z,99252.98
2023-04-17T01:48:05.533Z,99257.09
2023-04-17T01:49:28.058Z,99258.20
2023-04-17T01:50:43.133Z,99259.16
2023-04-17T01:52:16.792Z,99258.80
2023-04-17T01:53:49.625Z,99258.38
2023-04-17T01:55:04.728Z,99260.67
2023-04-17T01:56:18.705Z,99259.03
2023-04-17T01:57:51.399Z,99255.98
2023-04-17T01:58:53.901Z,99255.11
2023-04-17T02:00:19.456Z,99257.95
2023-04-17T02:01:33.870Z,99258.55
2023-04-17T02:02:59.630Z,99258.19
2023-04-17T02:04:33.522Z,99256.42
2023-04-17T02:17:32.703Z,99265.38
2023-04-17T02:19:14.134Z,99265.48
2023-04-17T02:20:48.354Z,99265.88
2023-04-17T02:22:23.125Z,99263.65
2023-04-17T02:23:55.868Z,99265.52
2023-04-17T02:25:09.037Z,99264.85
2023-04-17T02:26:27.074Z,99265.67
2023-04-17T02:27:39.481Z,99264.66
2023-04-17T02:29:01.880Z,99267.60
2023-04-17T02:30:14.100Z,99262.65
2023-04-17T02:31:38.210Z,99267.45
2023-04-17T02:33:10.812Z,99263.55
2023-04-17T02:34:31.061Z,99262.85
2023-04-17T02:36:03.547Z,99264.06
2023-04-17T02:37:25.962Z,99261.78
2023-04-17T02:38:50.421Z,99261.61
2023-04-17T02:40:22.897Z,99263.05
2023-04-17T02:41:55.445Z,99267.13
2023-04-17T02:43:28.157Z,99267.52
2023-04-17T02:44:53.332Z,99269.56
2023-04-17T02:46:25.967Z,99273.81
2023-04-17T02:47:38.409Z,99270.31
2023-04-17T02:48:59.821Z,99271.63
2023-04-17T02:51:46.775Z,99267.04
2023-04-17T02:53:19.292Z,99267.20
2023-04-17T02:54:51.916Z,99265.85
2023-04-17T02:56:13.559Z,99262.56
2023-04-17T02:57:46.417Z,99266.30
2023-04-17T02:59:20.090Z,99263.69
2023-04-17T03:00:53.852Z,99264.38
2023-04-17T03:02:19.503Z,99265.95
2023-04-17T03:03:45.055Z,99266.99
2023-04-17T03:05:17.772Z,99266.95
2023-04-17T03:06:50.253Z,99267.71
2023-04-17T03:08:16.373Z,99266.34
2023-04-17T03:09:38.292Z,99263.53
2023-04-17T03:11:01.435Z,99266.73
2023-04-17T03:12:07.583Z,99266.99
2023-04-17T03:13:40.198Z,99264.14
2023-04-17T03:15:12.563Z,99261.38
2023-04-17T03:16:45.287Z,99260.06
2023-04-17T03:18:09.879Z,99266.80
2023-04-17T03:19:31.559Z,99260.88
2023-04-17T03:21:04.217Z,99263.77
2023-04-17T03:22:37.662Z,99267.12
2023-04-17T03:23:51.857Z,99268.36
2023-04-17T03:25:28.644Z,99267.61
2023-04-17T03:27:02.185Z,99267.23
2023-04-17T03:27:59.832Z,99272.34
2023-04-17T03:29:32.351Z,99270.70
2023-04-17T03:31:04.925Z,99269.29
2023-04-17T03:32:28.899Z,99273.33
2023-04-17T03:34:01.308Z,99268.35
2023-04-17T03:35:26.910Z,99271.68
2023-04-17T03:37:21.446Z,99268.37
2023-04-17T03:38:53.942Z,99272.21
2023-04-17T03:40:26.440Z,99273.23
2023-04-17T03:41:59.135Z,99272.04
2023-04-17T03:43:31.739Z,99275.98
2023-04-17T03:45:04.157Z,99275.00
2023-04-17T04:29:05.579Z,99284.45
2023-04-17T04:30:39.664Z,99295.06
2023-04-17T04:31:52.796Z,99287.87
2023-04-17T04:33:17.925Z,99290.77
2023-04-17T04:34:50.423Z,99291.20
2023-04-17T04:36:23.087Z,99286.05
2023-04-17T04:37:55.388Z,99290.42
2023-04-17T04:39:27.931Z,99285.59
2023-04-17T04:40:50.460Z,99287.17
2023-04-17T04:41:56.590Z,99297.26
2023-04-17T04:43:22.645Z,99291.35
2023-04-17T04:44:56.391Z,99292.34
2023-04-17T04:46:28.842Z,99294.80
2023-04-17T05:15:03.776Z,99301.73
2023-04-17T05:16:16.185Z,99299.08
2023-04-17T05:17:48.901Z,99301.23
2023-04-17T05:19:12.550Z,99300.52
2023-04-17T05:20:48.354Z,99303.23
2023-04-17T05:21:57.236Z,99301.08
2023-04-17T05:23:22.460Z,99300.91
2023-04-17T05:24:54.976Z,99300.13
2023-04-17T05:26:21.441Z,99299.63
2023-04-17T05:27:39.258Z,99302.15
2023-04-17T05:29:12.421Z,99301.27
2023-04-17T05:39:38.573Z,99313.11
2023-04-17T05:41:12.216Z,99309.33
2023-04-17T05:42:45.269Z,99311.58
2023-04-17T05:43:50.410Z,99312.30
2023-04-17T05:45:25.431Z,99311.58
2023-04-17T05:46:57.751Z,99313.34
2023-04-17T05:48:23.424Z,99317.02
2023-04-17T05:49:55.886Z,99310.89
2023-04-17T05:51:28.365Z,99313.24
2023-04-17T05:53:01.103Z,99319.96
2023-04-17T05:54:33.511Z,99314.27
2023-04-17T05:57:58.241Z,99320.11
2023-04-17T05:59:10.728Z,99325.22
2023-04-17T06:00:43.606Z,99320.50
2023-04-17T06:02:16.297Z,99323.05
2023-04-17T06:03:37.756Z,99322.20
2023-04-17T06:04:55.797Z,99325.19
2023-04-17T06:06:28.481Z,99324.27
2023-04-17T06:08:01.259Z,99327.20
2023-04-17T06:09:32.545Z,99329.28
2023-04-17T06:11:05.439Z,99327.64
2023-04-17T06:20:42.486Z,99332.14
2023-04-17T06:22:14.941Z,99331.73
2023-04-17T06:23:47.580Z,99330.03
2023-04-17T06:25:08.725Z,99330.71
2023-04-17T06:26:41.659Z,99333.34
2023-04-17T06:34:59.057Z,99350.52
2023-04-17T06:36:30.594Z,99343.64
2023-04-17T06:37:42.787Z,99345.37
2023-04-17T06:39:15.293Z,99340.35
2023-04-17T06:40:48.948Z,99349.03
2023-04-17T06:42:02.857Z,99346.38
2023-04-17T06:43:35.381Z,99350.24
2023-04-17T06:44:59.536Z,99349.56
2023-04-17T06:46:06.533Z,99346.10
2023-04-17T06:47:39.529Z,99351.46
2023-04-17T07:00:16.335Z,99357.92
2023-04-17T07:18:01.104Z,99375.19
2023-04-17T07:19:34.808Z,99372.77
2023-04-17T07:26:48.242Z,99380.52
2023-04-17T07:40:33.415Z,99379.86
2023-04-17T07:42:07.185Z,99381.37
2023-04-17T07:43:39.778Z,99379.59
2023-04-17T07:45:12.262Z,99377.92
2023-04-17T07:46:27.949Z,99377.87
2023-04-17T07:47:49.206Z,99382.08
2023-04-17T07:49:22.954Z,99380.95
2023-04-17T08:06:00.500Z,99384.92
2023-04-17T08:07:33.051Z,99386.21
2023-04-17T08:09:05.768Z,99387.98
2023-04-17T08:10:38.305Z,99389.98
2023-04-17T08:12:10.492Z,99389.65
2023-04-17T08:23:01.118Z,99391.80
2023-04-17T08:24:15.011Z,99390.36
2023-04-17T08:25:49.899Z,99392.02
2023-04-17T08:27:23.805Z,99392.06
2023-04-17T08:28:57.821Z,99395.89
2023-04-17T08:30:24.480Z,99393.55
2023-04-17T08:32:13.490Z,99393.80
2023-04-17T08:33:49.032Z,99398.20
2023-04-17T08:35:17.453Z,99396.34
2023-04-17T08:36:51.619Z,99395.29
2023-04-17T08:46:08.977Z,99401.77
2023-04-17T08:47:41.493Z,99403.96
2023-04-17T08:49:14.613Z,99407.63
2023-04-17T08:50:27.023Z,99405.65
2023-04-17T08:51:59.299Z,99404.95
2023-04-17T08:53:32.040Z,99407.63
2023-04-17T08:57:03.683Z,99405.10
2023-04-17T08:58:31.637Z,99400.23
2023-04-17T09:00:04.320Z,99404.51
2023-04-17T09:01:37.028Z,99404.38
2023-04-17T09:03:02.527Z,99403.88
2023-04-17T09:04:41.271Z,99403.81
2023-04-17T09:06:13.244Z,99402.92
2023-04-17T09:07:47.351Z,99402.85
2023-04-17T09:09:19.817Z,99404.95
2023-04-17T09:10:43.451Z,99407.12
2023-04-17T09:12:08.780Z,99409.21
2023-04-17T09:13:41.374Z,99410.25
2023-04-17T09:15:13.915Z,99406.48
2023-04-17T09:16:40.542Z,99406.55
2023-04-17T09:18:15.742Z,99404.69
2023-04-17T09:19:52.683Z,99409.42
2023-04-17T09:21:28.114Z,99402.13
2023-04-17T09:22:58.801Z,99401.00
2023-04-17T09:24:21.441Z,99402.73
2023-04-17T09:25:33.547Z,99400.77
2023-04-17T09:27:08.847Z,99405.27
2023-04-17T09:28:44.351Z,99400.99
2023-04-17T09:30:17.056Z,99403.06
2023-04-17T09:31:58.511Z,99401.55
2023-04-17T09:33:31.184Z,99401.95
2023-04-17T09:34:46.483Z,99403.88
2023-04-17T09:36:07.578Z,99404.64
2023-04-17T09:37:40.059Z,99401.07
2023-04-17T09:38:52.496Z,99403.27
2023-04-17T09:40:33.586Z,99400.05
2023-04-17T09:41:51.961Z,99394.91
2023-04-17T09:43:04.473Z,99399.73
2023-04-17T09:44:43.099Z,99400.88
2023-04-17T09:46:18.135Z,99399.79
2023-04-17T09:47:50.697Z,99398.85
2023-04-17T09:49:23.345Z,99400.03
2023-04-17T09:50:39.088Z,99398.36
2023-04-17T09:52:11.887Z,99398.98
2023-04-17T09:53:39.555Z,99398.81
2023-04-17T09:55:12.114Z,99400.52
2023-04-17T09:56:46.401Z,99394.84
2023-04-17T09:58:20.719Z,99396.48
2023-04-17T09:59:47.535Z,99397.30
2023-04-17T10:01:02.962Z,99395.14
2023-04-17T10:02:13.251Z,99396.13
2023-04-17T10:03:36.682Z,99398.80
2023-04-17T10:05:10.190Z,99392.59
2023-04-17T10:06:42.887Z,99393.41
2023-04-17T10:08:04.160Z,99391.87
2023-04-17T10:09:26.115Z,99391.90
2023-04-17T10:11:04.696Z,99392.78
2023-04-17T10:12:17.968Z,99392.75
2023-04-17T10:13:34.153Z,99394.15
2023-04-17T10:15:02.636Z,99393.88
2023-04-17T10:16:35.304Z,99389.73
2023-04-17T10:18:26.112Z,99392.29
2023-04-17T10:20:17.023Z,99392.66
2023-04-17T10:21:59.846Z,99393.17
2023-04-17T10:23:33.576Z,99394.32
2023-04-17T10:25:06.270Z,99390.52
2023-04-17T10:26:37.251Z,99392.44
2023-04-17T10:28:25.049Z,99394.26
2023-04-17T10:31:45.721Z,99393.68
2023-04-17T10:33:11.647Z,99394.81
2023-04-17T10:34:50.209Z,99397.01
2023-04-17T10:36:22.855Z,99395.59
2023-04-17T10:37:55.414Z,99393.20
2023-04-17T10:39:30.727Z,99393.85
2023-04-17T10:41:04.338Z,99395.78
2023-04-17T10:42:45.803Z,99396.80
2023-04-17T10:44:21.286Z,99397.89
2023-04-17T10:45:56.889Z,99398.23
2023-04-17T10:47:30.677Z,99396.83
2023-04-17T10:49:07.204Z,99397.03
2023-04-17T10:53:21.705Z,99396.46
2023-04-17T10:56:31.683Z,99396.19
2023-04-17T10:58:02.565Z,99396.80
2023-04-17T10:59:29.455Z,99392.70
2023-04-17T11:01:11.918Z,99393.27
2023-04-17T11:02:51.823Z,99395.69
2023-04-17T11:04:24.810Z,99392.31
2023-04-17T11:21:04.272Z,99387.16
2023-04-17T11:22:46.059Z,99385.79
2023-04-17T11:24:18.615Z,99386.04
2023-04-17T11:26:00.171Z,99386.62
2023-04-17T11:27:32.696Z,99386.23
2023-04-17T11:29:05.326Z,99388.81
2023-04-17T11:30:38.085Z,99384.84
2023-04-17T11:32:10.956Z,99386.73
2023-04-17T12:06:49.508Z,99375.45
2023-04-17T12:08:22.142Z,99372.16
2023-04-17T12:10:00.563Z,99378.59
2023-04-17T12:11:32.381Z,99372.87
2023-04-17T12:13:04.973Z,99372.88
2023-04-17T12:14:37.555Z,99376.13
2023-04-17T12:16:10.285Z,99376.95
2023-04-17T12:17:43.064Z,99381.48
2023-04-17T12:19:16.708Z,99380.47
2023-04-17T12:27:27.492Z,99379.17
2023-04-17T12:29:00.055Z,99382.94
2023-04-17T12:30:32.232Z,99378.35
2023-04-17T12:32:05.007Z,99379.83
2023-04-17T12:33:18.055Z,99381.73
2023-04-17T12:34:52.008Z,99382.20
2023-04-17T12:36:29.613Z,99380.17
2023-04-17T12:38:03.717Z,99376.82
2023-04-17T12:38:56.016Z,99377.31
2023-04-17T12:40:29.583Z,99380.48
2023-04-17T13:01:38.912Z,99369.96
2023-04-17T13:03:12.845Z,99375.58
2023-04-17T13:04:45.429Z,99371.90
2023-04-17T13:06:07.851Z,99371.23
2023-04-17T13:07:40.374Z,99372.05
2023-04-17T13:09:13.386Z,99375.66
2023-04-17T13:10:47.026Z,99371.81
2023-04-17T13:18:37.145Z,99373.56
2023-04-17T13:20:09.688Z,99372.44
2023-04-17T13:21:22.155Z,99376.67
2023-04-17T13:22:54.726Z,99373.60
2023-04-17T13:24:17.543Z,99370.55
2023-04-17T13:25:50.485Z,99373.57
2023-04-17T13:27:15.839Z,99373.92
2023-04-17T13:35:21.650Z,99371.64
2023-04-17T13:36:54.245Z,99372.05
2023-04-17T13:38:00.238Z,99372.17
2023-04-17T13:39:18.296Z,99370.56
2023-04-17T13:40:43.384Z,99366.56
2023-04-17T13:41:56.532Z,99367.39
2023-04-17T13:43:29.199Z,99370.87
2023-04-17T13:45:02.852Z,99366.02
2023-04-17T13:53:01.785Z,99358.64
2023-04-17T13:54:34.614Z,99357.80
2023-04-17T13:55:47.541Z,99361.54
2023-04-17T13:57:20.202Z,99360.09
2023-04-17T13:58:51.654Z,99358.70
2023-04-17T14:02:24.049Z,99363.64
2023-04-17T14:03:56.870Z,99360.48
2023-04-17T14:05:29.427Z,99362.73
2023-04-17T14:07:02.240Z,99361.23
2023-04-17T14:08:35.001Z,99364.20
2023-04-17T14:10:03.613Z,99366.91
2023-04-17T14:19:14.060Z,99365.04
2023-04-17T14:21:02.912Z,99369.69
2023-04-17T14:22:40.835Z,99365.08
2023-04-17T14:24:18.628Z,99369.17
2023-04-17T14:28:31.880Z,99365.56
2023-04-17T14:29:44.649Z,99368.50
2023-04-17T14:30:57.245Z,99369.61
2023-04-17T14:32:29.881Z,99371.95
2023-04-17T14:34:02.520Z,99367.17
2023-04-17T14:35:08.008Z,99371.35
2023-04-17T14:53:53.484Z,99361.09
2023-04-17T14:55:26.546Z,99364.66
2023-04-17T14:56:59.881Z,99362.86
2023-04-17T14:58:32.520Z,99365.20
2023-04-17T15:00:05.477Z,99366.45
2023-04-17T15:01:39.195Z,99362.20
2023-04-17T15:03:12.068Z,99363.31
2023-04-17T15:04:50.603Z,99363.19
2023-04-17T15:06:23.935Z,99362.48
2023-04-17T15:07:37.313Z,99360.64
2023-04-17T15:10:50.329Z,99360.23
2023-04-17T15:12:25.650Z,99359.42
2023-04-17T15:13:52.633Z,99359.42
2023-04-17T15:15:26.469Z,99359.04
2023-04-17T15:17:00.752Z,99363.80
2023-04-17T15:28:10.056Z,99353.45
2023-04-17T15:29:42.816Z,99354.89
2023-04-17T15:31:15.429Z,99357.56
2023-04-17T15:32:48.022Z,99360.78
2023-04-17T15:34:20.646Z,99356.67
2023-04-17T15:35:53.333Z,99354.83
2023-04-17T15:37:26.056Z,99354.40
2023-04-17T15:39:00.135Z,99351.14
2023-04-17T15:44:47.508Z,99350.27
2023-04-17T15:46:10.574Z,99351.13
2023-04-17T15:47:24.438Z,99353.84
2023-04-17T15:49:08.299Z,99352.83
2023-04-17T15:50:43.170Z,99350.95
2023-04-17T15:52:17.490Z,99352.42
2023-04-17T15:56:36.749Z,99352.98
2023-04-17T16:09:17.921Z,99363.09
2023-04-17T16:12:24.553Z,99362.12
2023-04-17T16:13:59.781Z,99361.51
2023-04-17T16:15:35.498Z,99362.60
2023-04-17T16:18:32.740Z,99364.63
2023-04-17T16:24:34.062Z,99366.79
2023-04-17T16:26:09.592Z,99371.45
2023-04-17T16:27:44.567Z,99370.48
2023-04-17T16:29:19.097Z,99371.17
2023-04-17T16:44:43.592Z,99375.98
2023-04-17T16:46:23.993Z,99374.90
2023-04-17T16:48:09.379Z,99378.44
2023-04-17T16:49:35.939Z,99380.93
2023-04-17T16:51:10.169Z,99375.81
2023-04-17T16:52:24.678Z,99382.89
2023-04-17T16:53:58.267Z,99380.86
2023-04-17T17:06:54.356Z,99387.77
2023-04-17T17:22:52.408Z,99393.54
2023-04-17T17:24:25.105Z,99401.30
2023-04-17T17:25:57.664Z,99401.70
2023-04-17T17:27:20.673Z,99403.77
2023-04-17T17:28:53.694Z,99406.11
2023-04-17T17:30:26.491Z,99407.38
2023-04-17T17:31:42.082Z,99407.88
2023-04-17T17:33:16.015Z,99410.96
2023-04-17T17:40:45.340Z,99419.45
2023-04-17T17:42:19.341Z,99415.66
2023-04-17T17:43:54.221Z,99422.98
2023-04-17T17:45:28.547Z,99419.77
2023-04-17T17:47:02.569Z,99426.31
2023-04-17T17:48:37.470Z,99426.42
2023-04-17T17:50:12.545Z,99430.91
2023-04-17T17:51:36.744Z,99427.30
2023-04-17T18:02:19.687Z,99439.42
2023-04-17T18:03:52.667Z,99433.73
2023-04-17T18:05:14.514Z,99440.70
2023-04-17T18:06:47.368Z,99436.16
2023-04-17T18:07:59.902Z,99437.77
2023-04-17T18:09:32.511Z,99439.15
2023-04-17T18:11:05.876Z,99441.38
2023-04-17T18:12:39.661Z,99442.47
2023-04-17T18:29:24.514Z,99455.19
2023-04-17T18:30:57.071Z,99459.33
2023-04-17T18:32:29.643Z,99455.38
2023-04-17T18:33:55.333Z,99456.67
2023-04-17T18:35:28.610Z,99457.27
2023-04-17T18:37:03.241Z,99461.98
2023-04-17T18:38:36.594Z,99462.44
2023-04-17T18:40:10.423Z,99462.74
2023-04-17T18:41:43.278Z,99463.96
2023-04-17T18:43:06.250Z,99466.48
2023-04-17T18:56:53.614Z,99466.13
2023-04-17T18:58:15.066Z,99471.86
2023-04-17T18:59:47.588Z,99473.41
2023-04-17T19:01:10.917Z,99472.65
2023-04-17T19:02:43.702Z,99477.58
2023-04-17T19:04:09.205Z,99480.04
2023-04-17T19:05:22.150Z,99477.67
2023-04-17T19:06:55.054Z,99480.86
2023-04-17T19:08:12.558Z,99482.33
2023-04-17T19:09:45.555Z,99485.22
2023-04-17T19:24:10.052Z,99491.07
2023-04-17T19:25:42.692Z,99488.45
2023-04-17T19:27:15.323Z,99490.85
2023-04-17T19:28:47.906Z,99488.69
2023-04-17T19:30:20.749Z,99489.77
2023-04-17T19:30:52.533Z,99494.13
2023-04-17T19:32:25.035Z,99492.14
2023-04-17T19:33:57.594Z,99497.18
2023-04-17T19:35:33.001Z,99499.66
2023-04-17T19:37:05.830Z,99499.22
2023-04-17T19:37:57.828Z,99493.56
2023-04-17T19:39:19.464Z,99499.21
2023-04-17T19:40:44.997Z,99498.64
2023-04-17T19:50:15.545Z,99500.07
2023-04-17T19:51:48.227Z,99500.83
2023-04-17T19:53:20.786Z,99497.65
2023-04-17T19:54:53.275Z,99505.09
2023-04-17T19:56:25.944Z,99505.02
2023-04-17T19:57:58.951Z,99505.73
2023-04-17T20:08:56.638Z,99502.02
2023-04-17T20:10:19.273Z,99502.52
2023-04-17T20:11:34.102Z,99501.54
2023-04-17T20:13:06.696Z,99502.13
2023-04-17T20:14:39.218Z,99502.37
2023-04-17T20:16:01.205Z,99501.27
2023-04-17T20:17:33.750Z,99504.45
2023-04-17T20:19:06.941Z,99505.10
2023-04-17T20:20:40.745Z,99503.27
2023-04-17T20:22:14.121Z,99498.29
2023-04-17T20:45:36.385Z,99514.73
2023-04-17T20:47:09.110Z,99519.61
2023-04-17T20:48:44.876Z,99519.27
2023-04-17T20:50:07.741Z,99520.52
2023-04-17T20:51:20.085Z,99517.73
2023-04-17T20:52:45.673Z,99521.86
2023-04-17T20:54:01.154Z,99523.92
2023-04-17T20:55:23.797Z,99526.67
2023-04-17T20:56:56.260Z,99525.20
2023-04-17T20:58:29.097Z,99523.29
2023-04-17T21:31:03.780Z,99516.14
2023-04-17T21:32:37.892Z,99513.88
2023-04-17T21:34:11.644Z,99512.25
2023-04-17T21:35:44.754Z,99517.90
2023-04-17T21:37:18.104Z,99516.30
2023-04-17T21:38:50.774Z,99512.58
2023-04-17T21:40:25.302Z,99511.13
2023-04-17T21:41:59.893Z,99508.33
2023-04-17T21:48:34.524Z,99509.39
2023-04-17T21:49:59.886Z,99508.79
2023-04-17T21:51:12.316Z,99511.03
2023-04-17T21:52:44.916Z,99516.39
2023-04-17T21:53:57.391Z,99514.05
2023-04-17T21:55:29.950Z,99511.31
2023-04-17T21:56:52.767Z,99511.34
2023-04-17T21:58:25.403Z,99512.20
2023-04-17T21:59:57.952Z,99507.98
2023-04-17T22:01:31.000Z,99507.94
2023-04-17T22:03:04.848Z,99506.91
2023-04-17T22:04:37.703Z,99500.34
2023-04-17T22:06:10.461Z,99501.27
2023-04-17T22:07:53.708Z,99498.05
2023-04-17T22:09:29.108Z,99492.98
2023-04-17T22:11:02.111Z,99491.77
2023-04-17T22:12:23.768Z,99494.15
2023-04-17T22:39:00.198Z,99480.13
2023-04-17T22:40:29.581Z,99481.80
2023-04-17T22:41:53.543Z,99480.66
2023-04-17T22:44:56.229Z,99487.82
2023-04-17T22:46:27.188Z,99489.33
2023-04-17T22:47:57.058Z,99490.80
2023-04-17T22:49:28.285Z,99490.48
2023-04-17T22:50:56.361Z,99488.28
2023-04-17T22:52:27.268Z,99489.09
2023-04-17T22:53:56.658Z,99491.88
2023-04-17T22:55:27.745Z,99490.61
2023-04-17T22:56:58.872Z,99488.38
2023-04-17T22:58:29.503Z,99489.45
2023-04-17T22:59:59.081Z,99484.25
2023-04-17T23:01:30.033Z,99487.49
2023-04-17T23:03:02.819Z,99486.48
2023-04-17T23:04:12.644Z,99485.01
2023-04-17T23:05:43.090Z,99479.98
2023-04-17T23:07:12.734Z,99483.59
2023-04-17T23:08:40.873Z,99481.03
2023-04-17T23:10:13.383Z,99485.20
2023-04-17T23:11:46.131Z,99484.29
2023-04-17T23:13:18.615Z,99486.83
2023-04-17T23:14:51.108Z,99485.91
2023-04-17T23:16:23.301Z,99491.00
2023-04-17T23:17:49.435Z,99488.98
2023-04-17T23:25:36.220Z,99482.45
2023-04-17T23:27:08.729Z,99482.05
2023-04-17T23:28:41.424Z,99486.84
2023-04-17T23:30:13.836Z,99482.64
2023-04-17T23:31:46.502Z,99480.98
2023-04-17T23:33:20.429Z,99482.98
2023-04-17T23:34:53.493Z,99480.34
2023-04-17T23:36:27.100Z,99481.20
2023-04-17T23:49:33.356Z,99482.02
2023-04-17T23:51:06.166Z,99476.01
2023-04-17T23:52:38.697Z,99477.74
2023-04-17T23:54:11.621Z,99482.91
2023-04-17T23:55:47.597Z,99479.68
2023-04-17T23:57:20.145Z,99482.52
2023-04-17T23:58:53.081Z,99479.64
